EJU6002 LIRF-LDSP
Flight info
| Callsign | EJU6002 |
|---|---|
| Flight time | N/A |
| Altitude | 30000 |
| Route | OKUNO DCT ATRUP DCT VAPUP |
| Aircraft | A320/M-SDE3FGHIRWY/LB1 |
Departure
| Time | 2026-02-17 10:19 |
|---|---|
| Airport | Rome–Fiumicino Leonardo da Vinci International Airport (LIRF) |
Arrival
| Time | N/A |
|---|---|
| Airport | Split Saint Jerome Airport (LDSP) |
| Time | Latitude | Longitude | Altitude | Speed | Heading |
|---|---|---|---|---|---|
| 2026-02-17 09:53 | 41.79593 | 12.25769 | 14 ft | 0 kts | 115° |
| 2026-02-17 10:08 | 41.79598 | 12.25755 | -14 ft | 2 kts | 115° |
| 2026-02-17 10:08 | 41.79605 | 12.25733 | 19 ft | 3 kts | 94° |
| 2026-02-17 10:08 | 41.79603 | 12.25709 | 14 ft | 3 kts | 56° |
| 2026-02-17 10:08 | 41.79590 | 12.25690 | 14 ft | 3 kts | 31° |
| 2026-02-17 10:09 | 41.79579 | 12.25682 | 15 ft | 1 kts | 25° |
| 2026-02-17 10:09 | 41.79576 | 12.25680 | 15 ft | 0 kts | 25° |
| 2026-02-17 10:12 | 41.79578 | 12.25681 | 15 ft | 1 kts | 25° |
| 2026-02-17 10:12 | 41.79596 | 12.25693 | 14 ft | 5 kts | 25° |
| 2026-02-17 10:13 | 41.79636 | 12.25718 | 15 ft | 8 kts | 25° |
| 2026-02-17 10:13 | 41.79697 | 12.25756 | 14 ft | 11 kts | 25° |
| 2026-02-17 10:13 | 41.79771 | 12.25802 | 14 ft | 13 kts | 25° |
| 2026-02-17 10:13 | 41.79858 | 12.25829 | 14 ft | 14 kts | 355° |
| 2026-02-17 10:14 | 41.79950 | 12.25871 | 15 ft | 15 kts | 24° |
| 2026-02-17 10:14 | 41.80049 | 12.25932 | 14 ft | 16 kts | 25° |
| 2026-02-17 10:14 | 41.80158 | 12.25999 | 14 ft | 18 kts | 25° |
| 2026-02-17 10:15 | 41.80397 | 12.26146 | 17 ft | 19 kts | 25° |
| 2026-02-17 10:15 | 41.80516 | 12.26209 | 16 ft | 17 kts | 51° |
| 2026-02-17 10:15 | 41.80564 | 12.26366 | 17 ft | 19 kts | 69° |
| 2026-02-17 10:15 | 41.80610 | 12.26534 | 17 ft | 20 kts | 70° |
| 2026-02-17 10:16 | 41.80659 | 12.26712 | 15 ft | 21 kts | 70° |
| 2026-02-17 10:16 | 41.80702 | 12.26866 | 14 ft | 12 kts | 70° |
| 2026-02-17 10:16 | 41.80729 | 12.26965 | 13 ft | 10 kts | 70° |
| 2026-02-17 10:16 | 41.80765 | 12.27036 | 13 ft | 9 kts | 32° |
| 2026-02-17 10:17 | 41.80827 | 12.27032 | 15 ft | 10 kts | 341° |
| 2026-02-17 10:17 | 41.80896 | 12.26998 | 14 ft | 11 kts | 340° |
| 2026-02-17 10:17 | 41.80954 | 12.26931 | 12 ft | 13 kts | 274° |
| 2026-02-17 10:17 | 41.80938 | 12.26855 | 13 ft | 0 kts | 250° |
| 2026-02-17 10:18 | 41.80938 | 12.26853 | 13 ft | 2 kts | 250° |
| 2026-02-17 10:18 | 41.80871 | 12.26608 | 15 ft | 65 kts | 250° |
| 2026-02-17 10:18 | 41.80634 | 12.25760 | 17 ft | 127 kts | 250° |
| 2026-02-17 10:19 | 41.79782 | 12.23008 | 775 ft | 167 kts | 251° |
| 2026-02-17 10:19 | 41.79332 | 12.21578 | 1461 ft | 171 kts | 256° |
| 2026-02-17 10:19 | 41.78933 | 12.19988 | 1860 ft | 189 kts | 261° |
| 2026-02-17 10:19 | 41.78681 | 12.18163 | 2126 ft | 212 kts | 271° |
| 2026-02-17 10:20 | 41.78643 | 12.16069 | 2491 ft | 238 kts | 277° |
| 2026-02-17 10:20 | 41.78612 | 12.13732 | 3035 ft | 262 kts | 270° |
| 2026-02-17 10:20 | 41.78148 | 12.11298 | 3908 ft | 277 kts | 250° |
| 2026-02-17 10:20 | 41.76957 | 12.09233 | 4942 ft | 287 kts | 222° |
| 2026-02-17 10:21 | 41.75160 | 12.08005 | 5868 ft | 298 kts | 196° |
| 2026-02-17 10:21 | 41.73080 | 12.07888 | 6750 ft | 304 kts | 169° |
| 2026-02-17 10:21 | 41.71125 | 12.08943 | 7627 ft | 305 kts | 143° |
| 2026-02-17 10:21 | 41.69680 | 12.10963 | 8533 ft | 300 kts | 117° |
| 2026-02-17 10:22 | 41.69012 | 12.13542 | 9459 ft | 290 kts | 90° |
| 2026-02-17 10:22 | 41.69169 | 12.16204 | 10134 ft | 289 kts | 70° |
| 2026-02-17 10:22 | 41.69800 | 12.18831 | 10505 ft | 306 kts | 62° |
| 2026-02-17 10:23 | 41.71471 | 12.24383 | 11541 ft | 332 kts | 65° |
| 2026-02-17 10:23 | 41.72228 | 12.27319 | 12290 ft | 336 kts | 65° |
| 2026-02-17 10:23 | 41.72975 | 12.30310 | 13051 ft | 340 kts | 65° |
| 2026-02-17 10:23 | 41.73874 | 12.33173 | 13747 ft | 336 kts | 53° |
| 2026-02-17 10:24 | 41.75145 | 12.35856 | 14408 ft | 338 kts | 51° |
| 2026-02-17 10:24 | 41.76430 | 12.38522 | 15053 ft | 342 kts | 51° |
| 2026-02-17 10:24 | 41.77723 | 12.41202 | 15722 ft | 345 kts | 51° |
| 2026-02-17 10:24 | 41.79014 | 12.43886 | 16366 ft | 348 kts | 51° |
| 2026-02-17 10:25 | 41.80327 | 12.46629 | 17045 ft | 351 kts | 51° |
| 2026-02-17 10:25 | 41.81649 | 12.49400 | 17720 ft | 354 kts | 51° |
| 2026-02-17 10:25 | 41.82979 | 12.52189 | 18331 ft | 357 kts | 50° |
| 2026-02-17 10:25 | 41.84321 | 12.55003 | 18883 ft | 360 kts | 50° |
| 2026-02-17 10:26 | 41.85675 | 12.57844 | 19436 ft | 363 kts | 49° |
| 2026-02-17 10:26 | 41.87037 | 12.60709 | 19983 ft | 366 kts | 49° |
| 2026-02-17 10:26 | 41.88400 | 12.63620 | 20520 ft | 369 kts | 49° |
| 2026-02-17 10:27 | 41.91122 | 12.69537 | 21586 ft | 376 kts | 49° |
| 2026-02-17 10:27 | 41.92493 | 12.72544 | 22086 ft | 379 kts | 49° |
| 2026-02-17 10:27 | 41.93875 | 12.75580 | 22590 ft | 382 kts | 48° |
| 2026-02-17 10:27 | 41.95269 | 12.78637 | 23121 ft | 385 kts | 48° |
| 2026-02-17 10:28 | 41.96676 | 12.81725 | 23570 ft | 388 kts | 48° |
| 2026-02-17 10:28 | 41.98090 | 12.84834 | 23953 ft | 391 kts | 48° |
| 2026-02-17 10:28 | 41.99512 | 12.87964 | 24348 ft | 394 kts | 47° |
| 2026-02-17 10:28 | 42.00946 | 12.91117 | 24743 ft | 397 kts | 47° |
| 2026-02-17 10:29 | 42.02390 | 12.94296 | 25141 ft | 400 kts | 47° |
| 2026-02-17 10:29 | 42.03841 | 12.97495 | 25544 ft | 402 kts | 47° |
| 2026-02-17 10:29 | 42.05307 | 13.00725 | 25911 ft | 405 kts | 47° |
| 2026-02-17 10:29 | 42.06778 | 13.03968 | 26285 ft | 408 kts | 47° |
| 2026-02-17 10:30 | 42.08260 | 13.07239 | 26649 ft | 411 kts | 47° |
| 2026-02-17 10:30 | 42.09245 | 13.09412 | 26889 ft | 412 kts | 47° |
| 2026-02-17 10:30 | 42.10743 | 13.12729 | 27237 ft | 415 kts | 46° |
| 2026-02-17 10:31 | 42.13768 | 13.19430 | 27924 ft | 422 kts | 48° |
| 2026-02-17 10:31 | 42.15297 | 13.22826 | 28256 ft | 426 kts | 48° |
| 2026-02-17 10:31 | 42.16837 | 13.26257 | 28612 ft | 428 kts | 48° |
| 2026-02-17 10:31 | 42.18381 | 13.29705 | 28943 ft | 431 kts | 48° |
| 2026-02-17 10:32 | 42.19933 | 13.33170 | 29279 ft | 433 kts | 47° |
| 2026-02-17 10:32 | 42.21500 | 13.36665 | 29619 ft | 436 kts | 47° |
| 2026-02-17 10:32 | 42.23066 | 13.40170 | 29725 ft | 432 kts | 47° |
| 2026-02-17 10:32 | 42.24575 | 13.43587 | 29715 ft | 416 kts | 47° |
| 2026-02-17 10:33 | 42.26046 | 13.46917 | 29727 ft | 410 kts | 47° |
| 2026-02-17 10:33 | 42.28974 | 13.53480 | 29729 ft | 408 kts | 48° |
| 2026-02-17 10:34 | 42.31915 | 13.60044 | 29736 ft | 408 kts | 48° |
| 2026-02-17 10:34 | 42.34847 | 13.66629 | 29740 ft | 408 kts | 48° |
| 2026-02-17 10:35 | 42.39215 | 13.76516 | 29738 ft | 408 kts | 48° |
| 2026-02-17 10:35 | 42.42127 | 13.83116 | 29753 ft | 408 kts | 49° |
| 2026-02-17 10:36 | 42.44051 | 13.87484 | 29787 ft | 408 kts | 50° |